Time;durP1;ratioP1;P1;durP2;ratioP2;P2;SDS_P1;SDS_P2;PMS_P1;PMS_P2;Temp;Humidity;BMP_temperature;BMP_pressure;BME280_temperature;BME280_humidity;BME280_pressure;Samples;Min_cycle;Max_cycle;Signal;HPM_P1;HPM_P2
2021/08/25 00:00:42;;;;;;;1.50;1.40;;;21.60;99.90;;;21.90;55.38;102119.31;4964005;28;98448;-50
2021/08/25 00:03:09;;;;;;;2.27;2.00;;;21.50;99.90;;;21.87;55.34;102123.06;4964453;28;99603;-51
2021/08/25 00:05:34;;;;;;;3.27;2.17;;;21.50;99.90;;;21.84;55.33;102120.53;4963661;27;97184;-53
2021/08/25 00:08:00;;;;;;;1.80;1.43;;;21.50;99.90;;;21.81;55.51;102117.19;4968106;28;101405;-46
2021/08/25 00:10:26;;;;;;;3.53;2.20;;;21.40;99.90;;;21.78;55.52;102120.06;4981578;27;98480;-49
2021/08/25 00:12:52;;;;;;;2.80;1.57;;;21.40;99.90;;;21.72;55.68;102128.50;4969837;28;99704;-51
2021/08/25 00:15:18;;;;;;;1.57;1.40;;;21.30;99.90;;;21.68;55.88;102125.97;4964773;27;97472;-53
2021/08/25 00:17:43;;;;;;;2.10;1.63;;;21.20;99.90;;;21.64;56.02;102127.09;4967840;28;96950;-51
2021/08/25 00:20:10;;;;;;;2.07;1.70;;;21.20;99.90;;;21.62;56.20;102118.28;4970737;27;100469;-46
2021/08/25 00:22:36;;;;;;;5.13;2.10;;;21.20;99.90;;;21.60;55.77;102120.19;4970344;27;99731;-52
2021/08/25 00:25:03;;;;;;;4.03;2.10;;;21.20;99.90;;;21.58;56.11;102114.06;4969521;27;99191;-49
2021/08/25 00:27:29;;;;;;;4.03;1.97;;;21.10;99.90;;;21.57;56.12;102109.66;4976929;27;97347;-52
2021/08/25 00:29:54;;;;;;;1.87;1.50;;;21.10;99.90;;;21.59;56.27;102109.56;4966652;28;99427;-52
2021/08/25 00:32:20;;;;;;;1.87;1.53;;;21.20;99.90;;;21.61;56.23;102103.13;4966668;27;98862;-52
2021/08/25 00:34:46;;;;;;;2.47;1.50;;;21.20;99.90;;;21.63;56.38;102093.16;4970226;28;97437;-49
2021/08/25 00:37:12;;;;;;;3.87;1.87;;;21.30;99.90;;;21.65;56.08;102085.88;4970273;27;97169;-49
2021/08/25 00:39:38;;;;;;;1.80;1.60;;;21.30;99.90;;;21.68;56.02;102096.44;4965125;27;99043;-49
2021/08/25 00:42:04;;;;;;;2.87;1.70;;;21.40;99.90;;;21.69;56.25;102094.59;4976276;27;97677;-49
2021/08/25 00:44:30;;;;;;;2.50;1.90;;;21.30;99.90;;;21.66;56.12;102097.47;4962739;27;97426;-49
2021/08/25 00:46:56;;;;;;;1.97;1.53;;;21.30;99.90;;;21.64;56.26;102099.38;4985083;27;98462;-52
2021/08/25 00:49:22;;;;;;;2.53;1.40;;;21.30;99.90;;;21.61;56.39;102089.72;4964740;27;100123;-52
2021/08/25 00:51:49;;;;;;;2.40;1.80;;;21.20;99.90;;;21.58;56.41;102094.41;4972326;27;98162;-51
2021/08/25 00:54:17;;;;;;;2.70;2.17;;;21.10;99.90;;;21.52;56.38;102084.00;4979656;27;99532;-55
2021/08/25 00:56:45;;;;;;;2.67;2.03;;;21.00;99.90;;;21.50;56.83;102092.16;4969810;28;97974;-54
2021/08/25 00:59:12;;;;;;;1.53;1.40;;;21.00;99.90;;;21.46;56.81;102095.13;4968850;28;100365;-49
2021/08/25 01:01:56;;;;;;;3.93;2.03;;;21.00;99.90;;;21.42;56.71;102086.38;4967856;28;99294;-52
2021/08/25 01:04:25;;;;;;;4.67;2.33;;;20.90;99.90;;;21.35;56.65;102090.38;4963207;27;99978;-50
2021/08/25 01:06:51;;;;;;;3.43;2.50;;;20.80;99.90;;;21.31;56.57;102081.63;4965769;28;97971;-48
2021/08/25 01:09:17;;;;;;;3.33;2.33;;;20.80;99.90;;;21.24;56.57;102090.09;4948546;27;99718;-51
2021/08/25 01:11:47;;;;;;;4.20;2.40;;;20.60;99.90;;;21.18;55.74;102085.94;4986525;27;97388;-55
2021/08/25 01:14:13;;;;;;;2.10;1.90;;;20.60;99.90;;;21.16;57.40;102087.00;4965754;28;97033;-48
2021/08/25 01:16:45;;;;;;;2.47;1.90;;;20.60;99.90;;;21.14;57.71;102084.41;4966193;28;97527;-52
2021/08/25 01:19:17;;;;;;;3.27;1.63;;;20.60;99.90;;;21.07;57.45;102086.56;4985998;27;99681;-50
2021/08/25 01:21:45;;;;;;;5.40;2.50;;;20.50;99.90;;;20.98;55.80;102087.09;4963409;28;103591;-50
2021/08/25 01:24:13;;;;;;;2.23;1.87;;;20.40;99.90;;;21.00;58.05;102093.25;4970846;28;100523;-51
2021/08/25 01:26:40;;;;;;;2.47;2.00;;;20.40;99.90;;;21.00;57.92;102095.94;4964806;28;98383;-51
2021/08/25 01:29:26;;;;;;;1.97;1.70;;;20.40;99.90;;;20.98;58.09;102084.44;4984035;27;97616;-49
2021/08/25 01:31:54;;;;;;;2.77;2.20;;;20.40;99.90;;;20.97;58.17;102082.66;4960757;28;103177;-54
2021/08/25 01:34:21;;;;;;;2.10;1.63;;;20.40;99.90;;;20.93;57.72;102075.75;4958361;27;98045;-52
2021/08/25 01:36:54;;;;;;;1.97;1.63;;;20.40;99.90;;;20.98;58.14;102072.81;4985841;27;99118;-51
2021/08/25 01:39:20;;;;;;;3.40;2.47;;;20.40;99.90;;;20.98;58.00;102068.34;4961898;27;98041;-49
2021/08/25 01:41:50;;;;;;;2.73;2.20;;;20.40;99.90;;;21.00;57.97;102074.47;4965999;28;99913;-48
2021/08/25 01:44:16;;;;;;;3.63;1.70;;;20.50;99.90;;;20.99;58.03;102071.88;4962244;27;99416;-51
2021/08/25 01:46:43;;;;;;;2.87;2.10;;;20.40;99.90;;;20.95;57.80;102063.13;4971438;28;98956;-50
2021/08/25 01:49:12;;;;;;;2.00;1.80;;;20.40;99.90;;;20.92;58.17;102070.47;4974661;27;98739;-49
2021/08/25 01:51:40;;;;;;;3.03;2.33;;;20.30;99.90;;;20.87;58.35;102073.44;4970823;27;97087;-55
2021/08/25 01:54:07;;;;;;;2.67;1.73;;;20.20;99.90;;;20.89;58.21;102076.88;4978141;28;98964;-53
2021/08/25 01:56:33;;;;;;;1.70;1.43;;;20.30;99.90;;;20.89;58.34;102063.47;4972965;27;98663;-52
2021/08/25 01:59:01;;;;;;;3.93;2.30;;;20.30;99.90;;;20.89;58.12;102062.63;4973859;27;98223;-52
2021/08/25 02:01:27;;;;;;;4.30;2.83;;;20.30;99.90;;;20.89;58.19;102063.47;4983793;27;99519;-48
2021/08/25 02:03:53;;;;;;;3.43;2.67;;;20.30;99.90;;;20.89;58.18;102063.47;4972107;28;98419;-55
2021/08/25 02:06:19;;;;;;;2.53;2.10;;;20.30;99.90;;;20.87;58.31;102054.66;4989830;27;97180;-48
2021/08/25 02:08:45;;;;;;;7.13;2.57;;;20.30;99.90;;;20.89;58.40;102058.09;4994333;27;116437;-47
2021/08/25 02:11:11;;;;;;;3.03;1.97;;;20.30;99.90;;;20.88;58.21;102056.38;4996212;28;117586;-49
2021/08/25 02:13:36;;;;;;;3.77;2.70;;;20.30;99.90;;;20.90;58.12;102053.63;4987610;28;97068;-47
2021/08/25 02:16:03;;;;;;;2.60;2.17;;;20.30;99.90;;;20.87;58.19;102051.97;4992788;28;102032;-46
2021/08/25 02:18:28;;;;;;;4.47;2.60;;;20.30;99.90;;;20.86;58.43;102044.88;4989215;27;97704;-48
2021/08/25 02:20:54;;;;;;;2.30;1.90;;;20.20;99.90;;;20.84;58.38;102049.47;4993786;28;97278;-46
2021/08/25 02:23:20;;;;;;;2.20;1.73;;;20.20;99.90;;;20.81;58.61;102052.31;4990316;28;97152;-49
2021/08/25 02:25:46;;;;;;;2.23;1.70;;;20.10;99.90;;;20.80;58.54;102048.75;4995100;28;97489;-48
2021/08/25 02:28:12;;;;;;;2.50;1.80;;;20.20;99.90;;;20.82;58.60;102051.34;4993440;28;98657;-49
2021/08/25 02:30:38;;;;;;;1.90;1.30;;;20.20;99.90;;;20.84;58.58;102046.78;5003872;27;107090;-50
2021/08/25 02:33:04;;;;;;;3.23;1.97;;;20.20;99.90;;;20.87;58.54;102049.28;4991680;28;97099;-50
2021/08/25 02:35:30;;;;;;;3.60;2.40;;;20.30;99.90;;;20.89;58.50;102044.69;4987896;27;98416;-53
2021/08/25 02:37:56;;;;;;;5.07;2.57;;;20.30;99.90;;;20.86;58.34;102046.69;5009887;27;97637;-47
2021/08/25 02:40:22;;;;;;;2.27;1.90;;;20.20;99.90;;;20.86;58.46;102046.69;4985778;28;97032;-47
2021/08/25 02:42:47;;;;;;;1.67;1.57;;;20.20;99.90;;;20.83;58.52;102053.13;5001099;27;96850;-48
2021/08/25 02:45:13;;;;;;;3.43;2.43;;;20.20;99.90;;;20.81;58.42;102036.22;4993777;28;99046;-50
2021/08/25 02:47:39;;;;;;;3.83;3.07;;;20.20;99.90;;;20.77;57.70;102042.72;4990371;27;104613;-48
2021/08/25 02:50:07;;;;;;;4.03;3.07;;;20.10;99.90;;;20.71;58.02;102037.72;4991532;28;100007;-51
2021/08/25 02:52:34;;;;;;;3.77;2.70;;;20.00;99.90;;;20.67;58.60;102030.75;4990828;28;97432;-53
2021/08/25 02:55:00;;;;;;;3.33;2.50;;;19.90;99.90;;;20.62;58.40;102038.22;4992861;28;97180;-51
2021/08/25 02:57:26;;;;;;;3.87;2.67;;;19.90;99.90;;;20.59;59.06;102036.56;4987774;27;98367;-52
2021/08/25 02:59:52;;;;;;;5.07;2.20;;;19.80;99.90;;;20.56;58.88;102027.84;4975711;28;100011;-49
2021/08/25 03:02:18;;;;;;;2.27;1.63;;;19.80;99.90;;;20.55;59.20;102023.44;4989306;28;98250;-52
2021/08/25 03:04:44;;;;;;;3.53;2.07;;;19.80;99.90;;;20.55;59.08;102026.13;4992822;28;97226;-51
2021/08/25 03:07:10;;;;;;;4.20;2.73;;;19.90;99.90;;;20.54;59.07;102025.22;4992181;28;98407;-49
2021/08/25 03:09:36;;;;;;;4.23;3.10;;;19.90;99.90;;;20.55;59.16;102020.75;5005291;27;97245;-50
2021/08/25 03:12:02;;;;;;;2.80;2.17;;;19.90;99.90;;;20.55;59.35;102023.44;4992605;28;98489;-47
2021/08/25 03:14:28;;;;;;;4.83;3.33;;;19.90;99.90;;;20.52;57.97;102011.06;4990824;27;96943;-52
2021/08/25 03:16:54;;;;;;;3.37;2.87;;;19.90;99.90;;;20.53;59.21;102022.63;4990720;28;96853;-48
2021/08/25 03:19:19;;;;;;;2.93;1.93;;;19.80;99.90;;;20.52;59.35;102012.88;4990236;28;98929;-49
2021/08/25 03:21:45;;;;;;;2.10;1.67;;;19.80;99.90;;;20.52;59.18;102010.19;4993210;28;97266;-49
2021/08/25 03:24:11;;;;;;;3.77;2.03;;;19.80;99.90;;;20.52;59.30;102012.88;5010900;27;96938;-49
2021/08/25 03:26:37;;;;;;;5.40;2.60;;;19.80;99.90;;;20.52;59.28;102012.88;4988336;27;99493;-48
2021/08/25 03:29:03;;;;;;;3.00;1.93;;;19.80;99.90;;;20.52;59.28;102015.53;4992969;27;97209;-49
2021/08/25 03:31:30;;;;;;;2.40;1.73;;;19.80;99.90;;;20.53;59.33;102017.28;5005917;27;97078;-53
2021/08/25 03:33:56;;;;;;;2.80;2.10;;;19.80;99.90;;;20.52;59.18;102010.19;4984345;28;97024;-55
2021/08/25 03:36:22;;;;;;;2.33;1.90;;;19.80;99.90;;;20.53;59.31;102006.56;5009656;27;96940;-46
2021/08/25 03:38:47;;;;;;;2.23;2.03;;;19.90;99.90;;;20.55;59.22;102004.69;4992847;28;98443;-50
2021/08/25 03:41:13;;;;;;;2.83;1.97;;;19.90;99.90;;;20.56;59.16;102009.94;4993599;28;97818;-49
2021/08/25 03:43:39;;;;;;;2.80;2.03;;;19.90;99.90;;;20.58;59.11;102008.03;4988082;28;99180;-50
2021/08/25 03:46:05;;;;;;;2.50;2.00;;;19.90;99.90;;;20.56;59.26;101995.69;4994266;28;99500;-50
2021/08/25 03:48:31;;;;;;;2.33;1.87;;;19.90;99.90;;;20.56;59.27;101995.69;5002109;27;97559;-52
2021/08/25 03:50:56;;;;;;;3.20;2.07;;;19.90;99.90;;;20.57;59.22;101997.41;4991379;28;97046;-47
2021/08/25 03:53:22;;;;;;;2.63;1.97;;;19.90;99.90;;;20.55;59.30;101989.47;4989423;27;97443;-51
2021/08/25 03:55:48;;;;;;;2.73;2.20;;;19.90;99.90;;;20.53;58.96;101990.47;4992367;27;97342;-47
2021/08/25 03:58:14;;;;;;;2.67;2.00;;;19.80;99.90;;;20.52;59.29;101991.41;4992036;28;97489;-51
2021/08/25 04:00:39;;;;;;;2.10;1.83;;;19.80;99.90;;;20.53;59.52;101990.47;4987496;27;97895;-50
2021/08/25 04:03:05;;;;;;;3.47;2.00;;;19.80;99.90;;;20.54;59.28;101997.56;4995945;27;97602;-52
2021/08/25 04:05:31;;;;;;;2.40;1.80;;;19.80;99.90;;;20.54;59.34;102001.09;4983474;27;101146;-47
2021/08/25 04:07:57;;;;;;;2.60;2.23;;;19.80;99.90;;;20.55;59.44;102002.84;4990659;28;96983;-52
2021/08/25 04:10:23;;;;;;;2.93;2.30;;;19.90;99.90;;;20.57;59.05;102002.78;4986542;27;99573;-46
2021/08/25 04:12:49;;;;;;;2.63;2.20;;;19.90;99.90;;;20.56;58.99;101999.22;4991299;28;97846;-49
2021/08/25 04:15:14;;;;;;;3.10;2.07;;;19.90;99.90;;;20.55;59.09;102002.00;4992751;27;104255;-49
2021/08/25 04:17:40;;;;;;;2.40;1.83;;;19.90;99.90;;;20.53;59.11;101999.38;4988247;28;103141;-48
2021/08/25 04:20:07;;;;;;;1.90;1.67;;;19.80;99.90;;;20.52;59.10;101997.66;4985259;28;97428;-46
2021/08/25 04:22:33;;;;;;;3.33;2.37;;;19.80;99.90;;;20.48;58.62;101994.28;4983616;27;98590;-50
2021/08/25 04:24:58;;;;;;;5.17;3.20;;;19.70;99.90;;;20.44;58.53;101997.22;4993503;28;99592;-48
2021/08/25 04:27:24;;;;;;;5.80;3.00;;;19.70;99.90;;;20.36;58.33;101989.56;4980782;27;98678;-50
2021/08/25 04:29:50;;;;;;;4.43;2.80;;;19.50;99.90;;;20.27;59.13;101995.47;5009358;27;98565;-51
2021/08/25 04:32:16;;;;;;;4.03;2.60;;;19.40;99.90;;;20.22;59.08;101981.44;4990641;27;97582;-54
2021/08/25 04:34:42;;;;;;;5.00;2.90;;;19.30;99.90;;;20.18;59.64;101987.91;4992601;28;105758;-48
2021/08/25 04:37:08;;;;;;;3.77;2.67;;;19.30;99.90;;;20.17;59.90;102000.44;4988546;28;97239;-50
2021/08/25 04:39:34;;;;;;;3.07;2.40;;;19.40;99.90;;;20.16;60.04;101993.34;4989651;27;106547;-49
2021/08/25 04:42:00;;;;;;;2.60;1.87;;;19.40;99.90;;;20.17;59.89;101994.22;4994050;27;96986;-50
2021/08/25 04:44:25;;;;;;;5.47;2.90;;;19.40;99.90;;;20.15;58.16;101998.81;4989107;27;97343;-51
2021/08/25 04:46:51;;;;;;;2.10;1.83;;;19.40;99.90;;;20.16;60.13;101998.72;4987847;28;96991;-49
2021/08/25 04:49:17;;;;;;;3.43;2.67;;;19.40;99.90;;;20.16;60.05;101992.50;4987088;27;98057;-49
2021/08/25 04:51:43;;;;;;;5.37;2.53;;;19.40;99.90;;;20.17;59.96;101988.88;4974508;28;100845;-51
2021/08/25 04:54:08;;;;;;;4.27;2.87;;;19.50;99.90;;;20.18;60.04;101995.94;4974424;28;98394;-47
2021/08/25 04:56:34;;;;;;;2.83;2.30;;;19.40;99.90;;;20.19;60.20;101986.97;4984064;27;97237;-46
2021/08/25 04:59:00;;;;;;;2.63;1.90;;;19.40;99.90;;;20.20;60.17;101983.34;4989617;28;97206;-48
2021/08/25 05:01:26;;;;;;;2.73;2.17;;;19.50;99.90;;;20.23;60.02;101983.16;4987693;28;97608;-48
2021/08/25 05:03:51;;;;;;;3.87;2.67;;;19.50;99.90;;;20.26;60.01;101985.69;4991320;28;115925;-48
2021/08/25 05:06:17;;;;;;;4.50;2.60;;;19.60;99.90;;;20.29;59.68;101976.63;5001177;27;99360;-49
2021/08/25 05:08:43;;;;;;;4.67;2.83;;;19.60;99.90;;;20.31;59.73;101991.66;4988326;28;97808;-48
2021/08/25 05:11:10;;;;;;;4.17;2.70;;;19.70;99.90;;;20.33;59.65;101992.44;4991504;28;97461;-46
2021/08/25 05:13:38;;;;;;;6.27;3.40;;;19.60;99.90;;;20.34;59.76;101985.25;4979825;28;102274;-48
2021/08/25 05:16:11;;;;;;;3.60;2.90;;;19.60;99.90;;;20.36;59.78;101988.69;4987733;28;99195;-48
2021/08/25 05:18:38;;;;;;;6.40;3.43;;;19.70;99.90;;;20.34;59.48;101987.94;5001899;27;97172;-50
2021/08/25 05:21:04;;;;;;;2.90;2.23;;;19.60;99.90;;;20.35;59.67;101987.84;4988388;27;97503;-46
2021/08/25 05:23:30;;;;;;;4.93;3.23;;;19.60;99.90;;;20.34;59.64;101996.84;5000267;27;110729;-48
2021/08/25 05:25:56;;;;;;;4.27;3.10;;;19.60;99.90;;;20.34;59.61;101991.47;4981427;28;97380;-46
2021/08/25 05:28:23;;;;;;;7.27;3.90;;;19.60;99.90;;;20.33;59.88;101984.38;4985631;28;97320;-49
2021/08/25 05:30:49;;;;;;;4.83;3.60;;;19.60;99.90;;;20.35;59.76;101995.88;4989012;28;97249;-47
2021/08/25 05:33:15;;;;;;;3.27;2.17;;;19.60;99.90;;;20.35;59.67;101998.56;5003309;27;98699;-57
2021/08/25 05:35:41;;;;;;;5.00;3.20;;;19.60;99.90;;;20.34;59.68;101996.84;4982090;27;104386;-49
2021/08/25 05:38:07;;;;;;;9.40;4.80;;;19.60;99.90;;;20.35;59.72;101989.66;4989009;28;97018;-50
2021/08/25 05:40:33;;;;;;;4.77;2.80;;;19.60;99.90;;;20.34;59.81;101995.97;4984630;28;97428;-50
2021/08/25 05:42:58;;;;;;;4.73;2.20;;;19.60;99.90;;;20.35;59.58;101993.19;4984583;28;99873;-52
2021/08/25 05:45:24;;;;;;;3.93;2.93;;;19.60;99.90;;;20.33;59.58;101989.75;4980894;28;98128;-52
2021/08/25 05:47:52;;;;;;;4.10;2.87;;;19.60;99.90;;;20.33;59.68;101989.75;4991345;28;97419;-50
2021/08/25 05:50:18;;;;;;;3.83;2.63;;;19.60;99.90;;;20.33;59.82;101987.06;4981454;28;97565;-47
2021/08/25 05:52:44;;;;;;;5.60;3.63;;;19.60;99.90;;;20.34;59.82;101994.16;4989958;28;115079;-52
2021/08/25 05:55:10;;;;;;;8.53;4.20;;;19.60;99.90;;;20.30;59.72;101992.59;4988765;28;99122;-52
2021/08/25 05:57:45;;;;;;;3.53;2.20;;;19.50;99.90;;;20.31;60.02;101991.66;4981663;27;97481;-47
2021/08/25 06:00:14;;;;;;;3.40;2.27;;;19.50;99.90;;;20.32;59.77;101988.03;4986332;28;97436;-49
2021/08/25 06:02:41;;;;;;;2.90;2.17;;;19.60;99.90;;;20.35;59.73;101986.97;4986030;28;102347;-51
2021/08/25 06:05:08;;;;;;;14.77;5.67;;;19.70;99.90;;;19.92;52.24;101992.88;4992949;28;97840;-50
2021/08/25 06:07:34;;;;;;;11.33;5.27;;;19.30;99.90;;;19.59;54.31;101990.19;4986584;27;97139;-48
2021/08/25 06:10:00;;;;;;;9.23;5.03;;;18.90;99.90;;;19.12;57.80;101997.06;4993662;28;98769;-52
2021/08/25 06:12:27;;;;;;;9.63;4.53;;;18.30;99.90;;;19.26;60.32;101995.44;4985611;27;99617;-49
2021/08/25 06:14:52;;;;;;;7.90;4.77;;;18.40;99.90;;;19.23;58.96;101995.56;4988303;28;97310;-51
2021/08/25 06:17:18;;;;;;;8.73;4.37;;;18.50;99.90;;;19.22;57.38;101992.97;4989034;28;98929;-46
2021/08/25 06:19:44;;;;;;;6.70;3.23;;;18.50;99.90;;;19.14;56.97;101996.06;4972932;28;97332;-47
2021/08/25 06:22:10;;;;;;;7.37;3.80;;;18.50;99.90;;;19.16;60.46;101988.81;4984895;28;99733;-51
2021/08/25 06:24:36;;;;;;;4.70;3.30;;;18.40;99.90;;;19.17;60.14;102003.06;4985033;27;99637;-48
2021/08/25 06:27:03;;;;;;;9.83;3.60;;;18.40;99.90;;;19.15;58.11;101997.78;4987878;27;97180;-46
2021/08/25 06:29:29;;;;;;;5.97;3.90;;;18.40;99.90;;;19.12;58.29;101992.59;4982728;27;97333;-48
2021/08/25 06:31:55;;;;;;;6.17;3.47;;;18.40;99.90;;;19.09;56.64;101998.06;4958075;28;101080;-51
2021/08/25 06:34:21;;;;;;;6.50;3.63;;;18.40;99.90;;;19.05;54.95;101995.63;4981669;27;103356;-54
2021/08/25 06:36:47;;;;;;;6.20;3.50;;;18.40;99.90;;;19.05;57.86;101991.16;4990542;28;97479;-49
2021/08/25 06:39:13;;;;;;;6.40;3.50;;;18.40;99.90;;;19.01;57.93;101990.44;4986619;28;98451;-52
2021/08/25 06:41:39;;;;;;;5.03;3.30;;;18.30;99.90;;;18.96;57.54;101983.59;4986493;27;97049;-49
2021/08/25 06:44:05;;;;;;;6.27;4.00;;;18.30;99.90;;;19.00;58.70;101988.72;4992586;28;97920;-47
2021/08/25 06:46:30;;;;;;;6.43;3.60;;;18.30;99.90;;;19.02;57.68;101994.84;4983313;27;102783;-49
2021/08/25 06:48:56;;;;;;;7.77;4.00;;;18.40;99.90;;;19.03;58.77;101993.03;4974376;28;103135;-49
2021/08/25 06:51:22;;;;;;;6.43;3.53;;;18.40;99.90;;;19.09;56.14;101986.50;4977085;27;100033;-50
2021/08/25 06:53:48;;;;;;;6.03;3.57;;;18.50;99.90;;;19.02;57.25;101986.81;4941997;28;99313;-47
2021/08/25 06:56:14;;;;;;;6.70;4.30;;;18.50;99.90;;;19.00;56.85;101990.53;4963522;28;104317;-49
2021/08/25 06:58:39;;;;;;;6.67;3.97;;;18.40;99.90;;;19.00;58.75;101993.19;4975898;27;97520;-52
2021/08/25 07:01:05;;;;;;;5.73;3.80;;;18.40;99.90;;;19.00;54.95;101993.19;4964752;27;99084;-53
2021/08/25 07:03:31;;;;;;;4.83;3.53;;;18.50;99.90;;;19.05;58.69;101995.63;4974049;27;97790;-54
2021/08/25 07:05:57;;;;;;;6.50;3.80;;;18.50;99.90;;;19.03;57.09;101993.03;4962121;27;98876;-52
2021/08/25 07:08:23;;;;;;;4.43;3.17;;;18.50;99.90;;;19.04;55.70;101986.75;4961172;27;99597;-52
2021/08/25 07:10:49;;;;;;;6.37;3.53;;;18.50;99.90;;;19.01;57.80;101979.75;4964436;27;97815;-49
2021/08/25 07:13:14;;;;;;;4.93;3.40;;;18.50;99.90;;;19.17;59.14;101979.84;4966800;27;98276;-51
2021/08/25 07:15:40;;;;;;;7.93;3.97;;;18.60;99.90;;;19.20;55.49;101973.47;4960966;27;97750;-47
2021/08/25 07:18:06;;;;;;;6.80;3.20;;;18.70;99.90;;;19.30;60.55;101969.38;4965479;27;98772;-50
2021/08/25 07:20:33;;;;;;;5.40;3.60;;;18.70;99.90;;;19.35;55.06;101966.47;4961136;27;99772;-50
2021/08/25 07:22:58;;;;;;;5.43;3.83;;;18.80;99.90;;;19.38;57.00;101977.88;4965104;27;99724;-49
2021/08/25 07:25:24;;;;;;;7.17;3.70;;;18.90;99.90;;;19.33;53.94;101975.44;4961628;27;98398;-46
2021/08/25 07:27:50;;;;;;;5.70;3.80;;;18.90;99.90;;;19.25;51.45;101974.97;4984529;27;100804;-49
2021/08/25 07:30:16;;;;;;;7.80;4.33;;;18.80;99.90;;;19.22;51.41;101967.09;4978748;27;99381;-54
2021/08/25 07:32:42;;;;;;;6.47;3.60;;;18.80;99.90;;;19.15;54.37;101979.06;4962418;28;101925;-49
2021/08/25 07:35:10;;;;;;;9.30;4.17;;;18.80;99.90;;;19.09;52.51;101970.47;4965649;27;99032;-49
2021/08/25 07:37:37;;;;;;;6.17;3.90;;;18.70;99.90;;;19.09;57.47;101975.81;4979124;27;97680;-51
2021/08/25 07:40:05;;;;;;;8.00;4.03;;;18.70;99.90;;;19.33;59.69;101969.22;4962438;28;99202;-48
2021/08/25 07:42:31;;;;;;;7.53;4.13;;;18.90;99.90;;;19.41;52.58;101966.16;4960161;27;100649;-48
2021/08/25 07:44:57;;;;;;;7.33;4.27;;;19.00;99.90;;;19.50;57.12;101976.38;4965223;28;99154;-51
2021/08/25 07:47:23;;;;;;;7.30;3.80;;;19.10;99.90;;;19.59;55.39;101978.59;4974900;27;99151;-53
2021/08/25 07:49:49;;;;;;;5.20;3.40;;;19.20;99.90;;;19.73;59.34;101978.75;4970422;27;104242;-49
2021/08/25 07:52:15;;;;;;;6.30;4.20;;;19.30;99.90;;;19.77;50.96;101966.91;4962121;28;100342;-50
2021/08/25 07:54:41;;;;;;;4.53;3.10;;;19.40;99.90;;;19.91;58.49;101961.69;4964607;27;97611;-49
2021/08/25 07:57:06;;;;;;;7.03;4.07;;;19.50;99.90;;;20.16;59.08;101960.34;4983451;27;97625;-51
2021/08/25 07:59:32;;;;;;;9.00;3.60;;;19.80;99.90;;;20.19;50.67;101960.16;4962537;27;100520;-49
2021/08/25 08:01:58;;;;;;;6.27;4.13;;;19.90;99.90;;;20.10;50.55;101960.66;4964751;28;99901;-51
2021/08/25 08:04:24;;;;;;;6.43;3.23;;;19.80;99.90;;;20.15;53.37;101953.25;4959356;27;102102;-54
2021/08/25 08:06:50;;;;;;;7.77;3.50;;;19.80;99.90;;;20.32;55.87;101955.88;4984130;27;97860;-51
2021/08/25 08:09:16;;;;;;;7.07;3.83;;;19.90;99.90;;;20.27;51.99;101960.63;4964303;27;101100;-52
2021/08/25 08:11:42;;;;;;;7.23;3.80;;;19.90;99.90;;;20.23;51.43;101972.44;4967494;27;101217;-50
2021/08/25 08:14:08;;;;;;;5.27;3.53;;;19.90;99.90;;;20.31;57.13;101964.84;4960761;27;98526;-47
2021/08/25 08:16:35;;;;;;;4.50;2.47;;;19.90;99.90;;;20.53;57.74;101964.53;4959073;27;99089;-51
2021/08/25 08:19:23;;;;;;;6.93;3.40;;;20.20;99.90;;;20.71;57.21;101962.63;4964473;28;99191;-53
2021/08/25 08:21:50;;;;;;;5.47;3.77;;;20.50;99.90;;;20.82;56.11;101949.44;4963470;28;101187;-51
2021/08/25 08:24:16;;;;;;;6.43;3.70;;;20.60;99.90;;;20.78;50.03;101947.91;4964700;27;97364;-58
2021/08/25 08:26:43;;;;;;;9.63;3.57;;;20.60;99.60;;;20.80;55.83;101949.53;4966906;27;98934;-49
2021/08/25 08:29:09;;;;;;;3.23;2.37;;;20.50;99.90;;;20.97;56.81;101953.06;4943324;28;99986;-49
2021/08/25 08:31:34;;;;;;;3.13;2.37;;;20.70;99.90;;;21.14;56.56;101944.03;4975450;27;98980;-47
2021/08/25 08:34:00;;;;;;;4.13;3.17;;;20.90;99.90;;;21.25;55.97;101945.13;4969594;27;97275;-48
2021/08/25 08:36:26;;;;;;;2.70;2.33;;;21.10;99.90;;;21.37;55.98;101939.00;4966498;27;99225;-48
2021/08/25 08:38:52;;;;;;;2.90;2.37;;;21.20;99.90;;;21.47;55.49;101936.66;4966512;27;99692;-52
2021/08/25 08:41:18;;;;;;;6.83;3.27;;;21.30;99.90;;;21.51;55.10;101938.19;4975968;27;98934;-53
2021/08/25 08:43:47;;;;;;;4.70;3.17;;;21.30;99.90;;;21.57;54.46;101943.19;4950804;28;99170;-52
2021/08/25 08:46:15;;;;;;;7.70;4.37;;;21.40;99.90;;;21.42;47.93;101938.75;4964453;27;97305;-49
2021/08/25 08:48:43;;;;;;;6.27;3.40;;;21.20;98.90;;;21.44;52.33;101950.25;4964638;28;106856;-51
2021/08/25 08:51:19;;;;;;;3.10;2.20;;;21.20;99.80;;;21.55;54.86;101939.72;4963195;28;100160;-51
2021/08/25 08:53:47;;;;;;;6.87;3.70;;;21.30;99.90;;;21.53;49.00;101941.63;4960209;28;99117;-47
2021/08/25 08:56:13;;;;;;;4.73;3.13;;;21.30;99.20;;;21.30;46.80;101945.72;4980868;27;100402;-54
2021/08/25 08:58:40;;;;;;;5.73;3.90;;;21.10;98.00;;;21.36;48.98;101955.22;4973487;27;99614;-47
2021/08/25 09:01:07;;;;;;;5.93;3.60;;;21.10;98.50;;;21.23;47.09;101944.31;4981683;27;98764;-49
2021/08/25 09:03:39;;;;;;;7.23;3.70;;;21.00;97.90;;;21.27;48.74;101945.06;4960823;27;99074;-51
2021/08/25 09:06:07;;;;;;;4.50;2.87;;;21.00;97.60;;;21.29;51.78;101937.78;4981609;27;98486;-48
2021/08/25 09:08:39;;;;;;;5.93;3.73;;;21.00;98.70;;;21.31;53.90;101935.84;4961106;27;100059;-49
2021/08/25 09:11:17;;;;;;;6.73;3.80;;;21.00;99.90;;;21.27;48.88;101928.97;4964233;28;98812;-49
2021/08/25 09:13:48;;;;;;;6.90;4.00;;;21.00;99.10;;;21.32;54.23;101937.59;4976273;27;98828;-52
2021/08/25 09:16:33;;;;;;;7.43;3.63;;;21.10;99.90;;;21.34;53.63;101939.22;4983483;27;97465;-51
2021/08/25 09:19:14;;;;;;;6.47;4.50;;;21.10;99.90;;;21.36;54.14;101923.00;4976313;27;100348;-48
2021/08/25 09:21:45;;;;;;;7.47;3.53;;;21.10;99.90;;;21.42;50.77;101928.03;4964717;27;98174;-52
2021/08/25 09:24:13;;;;;;;6.10;3.63;;;21.20;99.70;;;21.49;54.16;101915.94;4967593;28;104663;-49
2021/08/25 09:27:09;;;;;;;4.90;3.10;;;21.30;99.90;;;21.56;53.96;101919.97;4980354;27;97735;-50
2021/08/25 09:29:44;;;;;;;5.87;3.47;;;21.40;99.90;;;21.57;53.98;101916.34;4979662;27;99435;-53
2021/08/25 09:32:23;;;;;;;4.13;2.93;;;21.40;99.90;;;21.64;54.22;101917.66;4969075;27;98339;-53
2021/08/25 09:34:58;;;;;;;4.77;3.20;;;21.50;99.90;;;21.66;52.82;101910.38;4962300;28;99093;-48
2021/08/25 09:37:27;;;;;;;3.67;2.93;;;21.50;99.90;;;21.68;51.96;101908.44;4964681;27;98404;-53
2021/08/25 09:39:57;;;;;;;5.57;3.40;;;21.50;99.80;;;21.35;44.30;101899.81;4964940;28;100209;-54
2021/08/25 09:42:24;;;;;;;5.30;2.90;;;21.20;95.60;;;21.46;45.71;101897.34;4978877;27;98975;-52
2021/08/25 09:45:07;;;;;;;5.17;3.60;;;21.30;96.70;;;21.52;47.96;101896.94;4948725;28;98918;-49
2021/08/25 09:47:57;;;;;;;5.00;2.97;;;21.30;96.90;;;21.57;44.66;101894.84;4962487;27;96866;-55
2021/08/25 09:50:26;;;;;;;6.07;2.87;;;21.40;96.10;;;21.55;44.39;101891.38;4981791;27;97516;-53
2021/08/25 09:52:53;;;;;;;5.53;2.50;;;21.40;95.60;;;21.63;53.14;101894.47;4984690;27;98588;-52
2021/08/25 09:55:33;;;;;;;5.60;2.90;;;21.40;99.90;;;21.68;45.68;101892.34;4982000;27;97552;-50
2021/08/25 09:57:59;;;;;;;5.73;3.23;;;21.50;97.00;;;21.72;52.05;101887.66;4990625;28;97381;-49
2021/08/25 10:00:25;;;;;;;4.50;3.13;;;21.60;99.90;;;21.75;45.66;101890.16;4978233;27;97880;-49
2021/08/25 10:02:51;;;;;;;5.27;2.70;;;21.70;96.70;;;21.83;51.97;101887.81;4988636;28;99753;-47
2021/08/25 10:05:28;;;;;;;5.80;2.63;;;21.70;99.90;;;21.91;52.16;101879.28;4983803;28;97281;-52
2021/08/25 10:07:55;;;;;;;4.80;3.00;;;21.80;99.90;;;21.96;49.11;101879.84;4992522;28;97396;-50
2021/08/25 10:10:21;;;;;;;5.37;3.10;;;21.90;99.00;;;21.99;44.01;101874.31;4988744;27;98041;-47